sensor_id;sensor_type;location;lat;lon;timestamp;P1;durP1;ratioP1;P2;durP2;ratioP2
20322;SDS011;10319;52.206;20.996;2024-02-21T00:01:17;14.07;;;2.70;;
20322;SDS011;10319;52.206;20.996;2024-02-21T00:03:51;13.60;;;2.57;;
20322;SDS011;10319;52.206;20.996;2024-02-21T00:06:20;14.80;;;2.73;;
20322;SDS011;10319;52.206;20.996;2024-02-21T00:09:06;13.53;;;2.70;;
20322;SDS011;10319;52.206;20.996;2024-02-21T00:11:32;13.63;;;2.80;;
20322;SDS011;10319;52.206;20.996;2024-02-21T00:14:04;14.57;;;2.80;;
20322;SDS011;10319;52.206;20.996;2024-02-21T00:16:34;12.10;;;2.30;;
20322;SDS011;10319;52.206;20.996;2024-02-21T00:19:04;13.67;;;2.63;;
20322;SDS011;10319;52.206;20.996;2024-02-21T00:21:55;12.37;;;2.77;;
20322;SDS011;10319;52.206;20.996;2024-02-21T00:27:46;16.47;;;3.03;;
20322;SDS011;10319;52.206;20.996;2024-02-21T00:33:17;13.13;;;2.63;;
20322;SDS011;10319;52.206;20.996;2024-02-21T00:38:51;14.93;;;3.20;;
20322;SDS011;10319;52.206;20.996;2024-02-21T00:45:07;16.60;;;2.87;;
20322;SDS011;10319;52.206;20.996;2024-02-21T00:51:17;14.33;;;2.90;;
20322;SDS011;10319;52.206;20.996;2024-02-21T00:54:28;12.53;;;2.93;;
20322;SDS011;10319;52.206;20.996;2024-02-21T00:57:25;18.40;;;3.37;;
20322;SDS011;10319;52.206;20.996;2024-02-21T01:03:07;16.63;;;3.43;;
20322;SDS011;10319;52.206;20.996;2024-02-21T01:05:51;16.17;;;3.40;;
20322;SDS011;10319;52.206;20.996;2024-02-21T01:08:26;16.67;;;3.17;;
20322;SDS011;10319;52.206;20.996;2024-02-21T01:16:44;19.57;;;3.20;;
20322;SDS011;10319;52.206;20.996;2024-02-21T01:22:51;18.27;;;3.20;;
20322;SDS011;10319;52.206;20.996;2024-02-21T01:28:58;15.47;;;2.73;;
20322;SDS011;10319;52.206;20.996;2024-02-21T01:31:43;15.10;;;3.13;;
20322;SDS011;10319;52.206;20.996;2024-02-21T01:34:09;16.20;;;3.10;;
20322;SDS011;10319;52.206;20.996;2024-02-21T01:36:41;15.43;;;3.30;;
20322;SDS011;10319;52.206;20.996;2024-02-21T01:39:12;15.20;;;3.00;;
20322;SDS011;10319;52.206;20.996;2024-02-21T01:41:39;15.20;;;3.40;;
20322;SDS011;10319;52.206;20.996;2024-02-21T01:44:10;15.83;;;3.27;;
20322;SDS011;10319;52.206;20.996;2024-02-21T01:47:10;17.87;;;3.43;;
20322;SDS011;10319;52.206;20.996;2024-02-21T01:49:40;17.40;;;3.60;;
20322;SDS011;10319;52.206;20.996;2024-02-21T01:52:26;19.90;;;3.70;;
20322;SDS011;10319;52.206;20.996;2024-02-21T01:54:59;17.97;;;3.87;;
20322;SDS011;10319;52.206;20.996;2024-02-21T01:58:04;15.87;;;3.33;;
20322;SDS011;10319;52.206;20.996;2024-02-21T02:00:33;16.03;;;3.10;;
20322;SDS011;10319;52.206;20.996;2024-02-21T02:03:02;14.63;;;3.50;;
20322;SDS011;10319;52.206;20.996;2024-02-21T02:08:35;17.33;;;3.30;;
20322;SDS011;10319;52.206;20.996;2024-02-21T02:20:53;15.87;;;4.87;;
20322;SDS011;10319;52.206;20.996;2024-02-21T02:27:03;17.70;;;4.23;;
20322;SDS011;10319;52.206;20.996;2024-02-21T02:30:13;17.13;;;3.60;;
20322;SDS011;10319;52.206;20.996;2024-02-21T02:39:09;17.03;;;3.37;;
20322;SDS011;10319;52.206;20.996;2024-02-21T02:41:51;14.23;;;3.40;;
20322;SDS011;10319;52.206;20.996;2024-02-21T02:44:44;17.07;;;3.47;;
20322;SDS011;10319;52.206;20.996;2024-02-21T02:50:39;13.83;;;3.27;;
20322;SDS011;10319;52.206;20.996;2024-02-21T02:53:05;15.93;;;3.87;;
20322;SDS011;10319;52.206;20.996;2024-02-21T02:58:39;16.60;;;3.67;;
20322;SDS011;10319;52.206;20.996;2024-02-21T03:04:28;16.23;;;3.80;;
20322;SDS011;10319;52.206;20.996;2024-02-21T03:07:00;16.43;;;3.73;;
20322;SDS011;10319;52.206;20.996;2024-02-21T03:09:25;18.17;;;4.20;;
20322;SDS011;10319;52.206;20.996;2024-02-21T03:11:52;15.83;;;4.20;;
20322;SDS011;10319;52.206;20.996;2024-02-21T03:14:22;20.00;;;4.63;;
20322;SDS011;10319;52.206;20.996;2024-02-21T03:17:02;16.87;;;4.37;;
20322;SDS011;10319;52.206;20.996;2024-02-21T03:19:35;15.40;;;4.30;;
20322;SDS011;10319;52.206;20.996;2024-02-21T03:22:21;12.67;;;4.13;;
20322;SDS011;10319;52.206;20.996;2024-02-21T03:24:50;17.13;;;4.50;;
20322;SDS011;10319;52.206;20.996;2024-02-21T03:27:17;17.90;;;4.00;;
20322;SDS011;10319;52.206;20.996;2024-02-21T03:29:45;14.60;;;3.77;;
20322;SDS011;10319;52.206;20.996;2024-02-21T03:32:11;15.67;;;4.03;;
20322;SDS011;10319;52.206;20.996;2024-02-21T03:34:36;16.37;;;4.17;;
20322;SDS011;10319;52.206;20.996;2024-02-21T03:39:54;17.17;;;4.17;;
20322;SDS011;10319;52.206;20.996;2024-02-21T03:42:21;18.93;;;4.70;;
20322;SDS011;10319;52.206;20.996;2024-02-21T03:44:52;14.90;;;4.07;;
20322;SDS011;10319;52.206;20.996;2024-02-21T03:47:18;13.93;;;3.80;;
20322;SDS011;10319;52.206;20.996;2024-02-21T03:49:45;16.53;;;4.07;;
20322;SDS011;10319;52.206;20.996;2024-02-21T03:52:11;17.03;;;4.07;;
20322;SDS011;10319;52.206;20.996;2024-02-21T03:54:41;12.37;;;3.33;;
20322;SDS011;10319;52.206;20.996;2024-02-21T03:57:06;15.87;;;4.00;;
20322;SDS011;10319;52.206;20.996;2024-02-21T03:59:32;17.10;;;3.97;;
20322;SDS011;10319;52.206;20.996;2024-02-21T04:01:58;17.20;;;4.07;;
20322;SDS011;10319;52.206;20.996;2024-02-21T04:04:25;15.20;;;3.30;;
20322;SDS011;10319;52.206;20.996;2024-02-21T04:06:52;14.83;;;3.87;;
20322;SDS011;10319;52.206;20.996;2024-02-21T04:09:17;17.80;;;4.37;;
20322;SDS011;10319;52.206;20.996;2024-02-21T04:11:44;14.27;;;3.90;;
20322;SDS011;10319;52.206;20.996;2024-02-21T04:14:10;19.37;;;4.57;;
20322;SDS011;10319;52.206;20.996;2024-02-21T04:16:36;18.53;;;4.23;;
20322;SDS011;10319;52.206;20.996;2024-02-21T04:19:02;17.37;;;4.40;;
20322;SDS011;10319;52.206;20.996;2024-02-21T04:21:29;15.60;;;4.03;;
20322;SDS011;10319;52.206;20.996;2024-02-21T04:23:54;17.47;;;3.70;;
20322;SDS011;10319;52.206;20.996;2024-02-21T04:26:20;15.43;;;4.30;;
20322;SDS011;10319;52.206;20.996;2024-02-21T04:28:47;20.90;;;4.90;;
20322;SDS011;10319;52.206;20.996;2024-02-21T04:31:13;16.47;;;4.43;;
20322;SDS011;10319;52.206;20.996;2024-02-21T04:33:41;16.23;;;4.30;;
20322;SDS011;10319;52.206;20.996;2024-02-21T04:36:06;16.40;;;4.30;;
20322;SDS011;10319;52.206;20.996;2024-02-21T04:38:35;19.70;;;4.93;;
20322;SDS011;10319;52.206;20.996;2024-02-21T04:41:01;15.17;;;4.07;;
20322;SDS011;10319;52.206;20.996;2024-02-21T04:43:27;16.40;;;4.47;;
20322;SDS011;10319;52.206;20.996;2024-02-21T04:45:55;18.87;;;4.73;;
20322;SDS011;10319;52.206;20.996;2024-02-21T04:48:20;16.80;;;4.50;;
20322;SDS011;10319;52.206;20.996;2024-02-21T04:50:47;20.03;;;5.33;;
20322;SDS011;10319;52.206;20.996;2024-02-21T04:53:14;18.63;;;5.47;;
20322;SDS011;10319;52.206;20.996;2024-02-21T04:55:41;19.43;;;5.53;;
20322;SDS011;10319;52.206;20.996;2024-02-21T04:58:09;20.00;;;5.97;;
20322;SDS011;10319;52.206;20.996;2024-02-21T05:00:35;20.03;;;5.63;;
20322;SDS011;10319;52.206;20.996;2024-02-21T05:03:07;20.77;;;6.27;;
20322;SDS011;10319;52.206;20.996;2024-02-21T05:05:33;19.90;;;5.53;;
20322;SDS011;10319;52.206;20.996;2024-02-21T05:08:01;23.40;;;6.80;;
20322;SDS011;10319;52.206;20.996;2024-02-21T05:10:33;18.30;;;6.67;;
20322;SDS011;10319;52.206;20.996;2024-02-21T05:13:03;19.40;;;5.80;;
20322;SDS011;10319;52.206;20.996;2024-02-21T05:15:29;22.73;;;5.67;;
20322;SDS011;10319;52.206;20.996;2024-02-21T05:17:56;20.27;;;5.53;;
20322;SDS011;10319;52.206;20.996;2024-02-21T05:20:21;17.53;;;5.03;;
20322;SDS011;10319;52.206;20.996;2024-02-21T05:22:48;19.07;;;5.00;;
20322;SDS011;10319;52.206;20.996;2024-02-21T05:25:16;19.97;;;5.80;;
20322;SDS011;10319;52.206;20.996;2024-02-21T05:27:43;17.37;;;5.23;;
20322;SDS011;10319;52.206;20.996;2024-02-21T05:30:09;18.30;;;5.43;;
20322;SDS011;10319;52.206;20.996;2024-02-21T05:32:35;17.47;;;5.10;;
20322;SDS011;10319;52.206;20.996;2024-02-21T05:35:00;17.63;;;5.10;;
20322;SDS011;10319;52.206;20.996;2024-02-21T05:37:26;20.47;;;5.27;;
20322;SDS011;10319;52.206;20.996;2024-02-21T05:39:57;20.17;;;4.93;;
20322;SDS011;10319;52.206;20.996;2024-02-21T05:42:23;18.63;;;5.13;;
20322;SDS011;10319;52.206;20.996;2024-02-21T05:44:48;18.53;;;5.23;;
20322;SDS011;10319;52.206;20.996;2024-02-21T05:47:20;18.97;;;4.70;;
20322;SDS011;10319;52.206;20.996;2024-02-21T05:49:47;18.83;;;5.23;;
20322;SDS011;10319;52.206;20.996;2024-02-21T05:52:19;16.73;;;4.60;;
20322;SDS011;10319;52.206;20.996;2024-02-21T05:54:45;19.33;;;5.70;;
20322;SDS011;10319;52.206;20.996;2024-02-21T05:57:13;16.00;;;5.00;;
20322;SDS011;10319;52.206;20.996;2024-02-21T05:59:38;17.87;;;5.67;;
20322;SDS011;10319;52.206;20.996;2024-02-21T06:02:05;17.77;;;5.27;;
20322;SDS011;10319;52.206;20.996;2024-02-21T06:04:30;18.90;;;4.87;;
20322;SDS011;10319;52.206;20.996;2024-02-21T06:06:56;20.23;;;5.77;;
20322;SDS011;10319;52.206;20.996;2024-02-21T06:09:22;16.40;;;5.23;;
20322;SDS011;10319;52.206;20.996;2024-02-21T06:11:47;21.07;;;6.00;;
20322;SDS011;10319;52.206;20.996;2024-02-21T06:14:14;18.00;;;5.47;;
20322;SDS011;10319;52.206;20.996;2024-02-21T06:16:43;19.63;;;5.93;;
20322;SDS011;10319;52.206;20.996;2024-02-21T06:19:10;16.80;;;5.70;;
20322;SDS011;10319;52.206;20.996;2024-02-21T06:21:36;19.67;;;5.70;;
20322;SDS011;10319;52.206;20.996;2024-02-21T06:24:02;17.83;;;5.50;;
20322;SDS011;10319;52.206;20.996;2024-02-21T06:26:32;17.93;;;5.37;;
20322;SDS011;10319;52.206;20.996;2024-02-21T06:28:58;18.10;;;5.57;;
20322;SDS011;10319;52.206;20.996;2024-02-21T06:31:24;18.47;;;5.97;;
20322;SDS011;10319;52.206;20.996;2024-02-21T06:33:51;19.97;;;6.37;;
20322;SDS011;10319;52.206;20.996;2024-02-21T06:36:19;18.47;;;5.50;;
20322;SDS011;10319;52.206;20.996;2024-02-21T06:41:53;20.57;;;6.77;;
20322;SDS011;10319;52.206;20.996;2024-02-21T06:44:21;19.17;;;6.07;;
20322;SDS011;10319;52.206;20.996;2024-02-21T06:46:56;20.93;;;6.83;;
20322;SDS011;10319;52.206;20.996;2024-02-21T06:49:23;20.90;;;6.17;;
20322;SDS011;10319;52.206;20.996;2024-02-21T06:51:50;19.87;;;6.47;;
20322;SDS011;10319;52.206;20.996;2024-02-21T06:54:40;23.43;;;7.20;;
20322;SDS011;10319;52.206;20.996;2024-02-21T06:57:28;21.27;;;6.60;;
20322;SDS011;10319;52.206;20.996;2024-02-21T06:59:55;24.67;;;7.47;;
20322;SDS011;10319;52.206;20.996;2024-02-21T07:02:30;24.87;;;6.83;;
20322;SDS011;10319;52.206;20.996;2024-02-21T07:05:02;20.90;;;7.13;;
20322;SDS011;10319;52.206;20.996;2024-02-21T07:08:05;21.00;;;7.33;;
20322;SDS011;10319;52.206;20.996;2024-02-21T07:10:35;19.90;;;7.23;;
20322;SDS011;10319;52.206;20.996;2024-02-21T07:13:02;24.10;;;8.00;;
20322;SDS011;10319;52.206;20.996;2024-02-21T07:15:27;25.47;;;7.77;;
20322;SDS011;10319;52.206;20.996;2024-02-21T07:17:55;23.07;;;6.97;;
20322;SDS011;10319;52.206;20.996;2024-02-21T07:20:22;23.00;;;7.20;;
20322;SDS011;10319;52.206;20.996;2024-02-21T07:22:51;21.97;;;7.27;;
20322;SDS011;10319;52.206;20.996;2024-02-21T07:25:18;20.87;;;6.93;;
20322;SDS011;10319;52.206;20.996;2024-02-21T07:27:46;23.87;;;7.40;;
20322;SDS011;10319;52.206;20.996;2024-02-21T07:30:20;22.57;;;7.00;;
20322;SDS011;10319;52.206;20.996;2024-02-21T07:32:49;25.27;;;7.63;;
20322;SDS011;10319;52.206;20.996;2024-02-21T07:35:35;22.57;;;7.60;;
20322;SDS011;10319;52.206;20.996;2024-02-21T07:38:10;27.67;;;8.10;;
20322;SDS011;10319;52.206;20.996;2024-02-21T07:40:46;26.50;;;7.93;;
20322;SDS011;10319;52.206;20.996;2024-02-21T07:43:16;28.77;;;8.13;;
20322;SDS011;10319;52.206;20.996;2024-02-21T07:45:41;23.40;;;7.30;;
20322;SDS011;10319;52.206;20.996;2024-02-21T07:48:07;23.83;;;7.90;;
20322;SDS011;10319;52.206;20.996;2024-02-21T07:50:35;22.33;;;7.60;;
20322;SDS011;10319;52.206;20.996;2024-02-21T07:53:01;25.47;;;7.43;;
20322;SDS011;10319;52.206;20.996;2024-02-21T07:55:27;24.97;;;8.10;;
20322;SDS011;10319;52.206;20.996;2024-02-21T07:57:52;23.10;;;7.17;;
20322;SDS011;10319;52.206;20.996;2024-02-21T08:00:19;25.53;;;8.47;;
20322;SDS011;10319;52.206;20.996;2024-02-21T08:02:55;26.70;;;8.37;;
20322;SDS011;10319;52.206;20.996;2024-02-21T08:11:40;30.13;;;8.70;;
20322;SDS011;10319;52.206;20.996;2024-02-21T08:14:25;24.17;;;8.47;;
20322;SDS011;10319;52.206;20.996;2024-02-21T08:17:12;28.87;;;9.07;;
20322;SDS011;10319;52.206;20.996;2024-02-21T08:19:39;30.90;;;9.80;;
20322;SDS011;10319;52.206;20.996;2024-02-21T08:22:05;23.10;;;8.30;;
20322;SDS011;10319;52.206;20.996;2024-02-21T08:24:35;23.23;;;8.47;;
20322;SDS011;10319;52.206;20.996;2024-02-21T08:27:10;23.73;;;7.87;;
20322;SDS011;10319;52.206;20.996;2024-02-21T08:30:15;28.23;;;9.37;;
20322;SDS011;10319;52.206;20.996;2024-02-21T08:33:15;26.50;;;9.00;;
20322;SDS011;10319;52.206;20.996;2024-02-21T08:38:55;27.73;;;9.17;;
20322;SDS011;10319;52.206;20.996;2024-02-21T08:41:35;28.27;;;9.60;;
20322;SDS011;10319;52.206;20.996;2024-02-21T08:44:39;28.27;;;10.03;;
20322;SDS011;10319;52.206;20.996;2024-02-21T08:51:00;24.17;;;8.70;;
20322;SDS011;10319;52.206;20.996;2024-02-21T08:54:03;24.20;;;8.07;;
20322;SDS011;10319;52.206;20.996;2024-02-21T08:56:53;24.90;;;8.10;;
20322;SDS011;10319;52.206;20.996;2024-02-21T09:03:00;24.30;;;9.43;;
20322;SDS011;10319;52.206;20.996;2024-02-21T09:15:17;26.50;;;8.00;;
20322;SDS011;10319;52.206;20.996;2024-02-21T09:17:58;26.50;;;8.70;;
20322;SDS011;10319;52.206;20.996;2024-02-21T09:24:06;24.20;;;7.83;;
20322;SDS011;10319;52.206;20.996;2024-02-21T09:30:16;23.53;;;7.60;;
20322;SDS011;10319;52.206;20.996;2024-02-21T09:36:44;23.70;;;6.53;;
20322;SDS011;10319;52.206;20.996;2024-02-21T09:49:03;19.93;;;5.40;;
20322;SDS011;10319;52.206;20.996;2024-02-21T09:52:19;22.17;;;5.80;;
20322;SDS011;10319;52.206;20.996;2024-02-21T09:58:12;20.70;;;5.57;;
20322;SDS011;10319;52.206;20.996;2024-02-21T10:04:03;21.30;;;5.40;;
20322;SDS011;10319;52.206;20.996;2024-02-21T10:18:54;19.13;;;4.53;;
20322;SDS011;10319;52.206;20.996;2024-02-21T10:28:08;20.87;;;4.33;;
20322;SDS011;10319;52.206;20.996;2024-02-21T10:37:42;21.90;;;4.63;;
20322;SDS011;10319;52.206;20.996;2024-02-21T11:23:36;21.77;;;6.17;;
20322;SDS011;10319;52.206;20.996;2024-02-21T11:29:09;24.77;;;6.77;;
20322;SDS011;10319;52.206;20.996;2024-02-21T11:31:47;21.93;;;6.63;;
20322;SDS011;10319;52.206;20.996;2024-02-21T11:34:32;28.73;;;8.37;;
20322;SDS011;10319;52.206;20.996;2024-02-21T11:37:15;23.57;;;7.03;;
20322;SDS011;10319;52.206;20.996;2024-02-21T11:42:50;22.10;;;7.63;;
20322;SDS011;10319;52.206;20.996;2024-02-21T11:49:05;24.90;;;7.67;;
20322;SDS011;10319;52.206;20.996;2024-02-21T11:51:47;22.47;;;6.53;;
20322;SDS011;10319;52.206;20.996;2024-02-21T11:54:56;24.23;;;7.50;;
20322;SDS011;10319;52.206;20.996;2024-02-21T12:01:19;23.77;;;7.93;;
